PRIVATE WETTERSTATION BILLIGHEIM-ALLFELD                       ZURCK
Wetterdaten: Samstag, 31.05.2014
Datum Zeit Temp. A. Temp. A. min Temp. A. max Feuchte A. Luftdruck Regen Wind Richtung Richtung Sonnenschein ET Solar Taupunkt Windchill Windben Empfang
31.05.2014 00:00 6,6 C 6,6 C 6,8 C 87 % 1021,9 hPa 0,0 l/m 0,0 km/h (0 Bft) O 90 0 min 0,000 mm 0 W/m 4,6 C 6,6 C 3,2 km/h (1 Bft) 100 %
31.05.2014 00:10 6,4 C 6,4 C 6,6 C 87 % 1021,8 hPa 0,0 l/m 1,6 km/h (1 Bft) O 90 0 min 0,000 mm 0 W/m 4,4 C 6,4 C 3,2 km/h (1 Bft) 100 %
31.05.2014 00:20 6,3 C 6,3 C 6,4 C 87 % 1021,8 hPa 0,0 l/m 1,6 km/h (1 Bft) N 360 0 min 0,000 mm 0 W/m 4,3 C 6,3 C 3,2 km/h (1 Bft) 100 %
31.05.2014 00:30 6,1 C 6,1 C 6,2 C 87 % 1021,7 hPa 0,0 l/m 0,0 km/h (0 Bft) N 360 0 min 0,000 mm 0 W/m 4,1 C 6,1 C 1,6 km/h (1 Bft) 100 %
31.05.2014 00:40 5,9 C 5,9 C 6,1 C 87 % 1021,8 hPa 0,0 l/m 0,0 km/h (0 Bft) N 360 0 min 0,000 mm 0 W/m 3,9 C 5,9 C 3,2 km/h (1 Bft) 100 %
31.05.2014 00:50 5,8 C 5,8 C 5,9 C 87 % 1021,7 hPa 0,0 l/m 0,0 km/h (0 Bft) N 360 0 min 0,000 mm 0 W/m 3,8 C 5,8 C 1,6 km/h (1 Bft) 100 %
31.05.2014 01:00 5,7 C 5,7 C 5,8 C 87 % 1021,7 hPa 0,0 l/m 1,6 km/h (1 Bft) N 360 0 min 0,000 mm 0 W/m 3,7 C 5,7 C 3,2 km/h (1 Bft) 100 %
31.05.2014 01:10 5,7 C 5,7 C 5,7 C 87 % 1021,7 hPa 0,0 l/m 0,0 km/h (0 Bft) N 360 0 min 0,000 mm 0 W/m 3,7 C 5,7 C 3,2 km/h (1 Bft) 100 %
31.05.2014 01:20 5,5 C 5,5 C 5,7 C 87 % 1021,7 hPa 0,0 l/m 1,6 km/h (1 Bft) N 360 0 min 0,000 mm 0 W/m 3,5 C 5,5 C 3,2 km/h (1 Bft) 100 %
31.05.2014 01:30 5,4 C 5,4 C 5,5 C 87 % 1021,7 hPa 0,0 l/m 1,6 km/h (1 Bft) N 360 0 min 0,000 mm 0 W/m 3,4 C 5,4 C 3,2 km/h (1 Bft) 100 %
31.05.2014 01:40 5,3 C 5,3 C 5,4 C 87 % 1021,8 hPa 0,0 l/m 0,0 km/h (0 Bft) N 360 0 min 0,000 mm 0 W/m 3,3 C 5,3 C 1,6 km/h (1 Bft) 100 %
31.05.2014 01:50 5,2 C 5,2 C 5,3 C 87 % 1021,8 hPa 0,0 l/m 0,0 km/h (0 Bft) N 360 0 min 0,000 mm 0 W/m 3,2 C 5,2 C 1,6 km/h (1 Bft) 91 %
31.05.2014 02:00 5,1 C 5,1 C 5,2 C 87 % 1021,8 hPa 0,0 l/m 0,0 km/h (0 Bft) N 360 0 min 0,000 mm 0 W/m 3,1 C 5,1 C 1,6 km/h (1 Bft) 100 %
31.05.2014 02:10 4,9 C 4,9 C 5,1 C 87 % 1021,8 hPa 0,0 l/m 0,0 km/h (0 Bft) N 360 0 min 0,000 mm 0 W/m 2,9 C 4,9 C 1,6 km/h (1 Bft) 100 %
31.05.2014 02:20 4,9 C 4,9 C 4,9 C 87 % 1021,8 hPa 0,0 l/m 0,0 km/h (0 Bft) N 360 0 min 0,000 mm 0 W/m 2,9 C 4,9 C 1,6 km/h (1 Bft) 100 %
31.05.2014 02:30 4,8 C 4,8 C 4,9 C 88 % 1021,8 hPa 0,0 l/m 1,6 km/h (1 Bft) N 360 0 min 0,000 mm 0 W/m 3,0 C 4,8 C 3,2 km/h (1 Bft) 100 %
31.05.2014 02:40 4,7 C 4,7 C 4,8 C 87 % 1021,7 hPa 0,0 l/m 0,0 km/h (0 Bft) N 360 0 min 0,000 mm 0 W/m 2,7 C 4,7 C 3,2 km/h (1 Bft) 100 %
31.05.2014 02:50 4,6 C 4,6 C 4,7 C 87 % 1021,7 hPa 0,0 l/m 0,0 km/h (0 Bft) N 360 0 min 0,000 mm 0 W/m 2,6 C 4,6 C 1,6 km/h (1 Bft) 100 %
31.05.2014 03:00 4,5 C 4,5 C 4,6 C 88 % 1021,6 hPa 0,0 l/m 0,0 km/h (0 Bft) N 0 0 min 0,000 mm 0 W/m 2,7 C 4,5 C 0,0 km/h (0 Bft) 100 %
31.05.2014 03:10 4,4 C 4,3 C 4,5 C 88 % 1021,5 hPa 0,0 l/m 0,0 km/h (0 Bft) N 0 0 min 0,000 mm 0 W/m 2,6 C 4,4 C 0,0 km/h (0 Bft) 100 %
31.05.2014 03:20 4,4 C 4,3 C 4,4 C 88 % 1021,4 hPa 0,0 l/m 0,0 km/h (0 Bft) N 0 0 min 0,000 mm 0 W/m 2,6 C 4,4 C 0,0 km/h (0 Bft) 100 %
31.05.2014 03:30 4,4 C 4,4 C 4,4 C 88 % 1021,4 hPa 0,0 l/m 0,0 km/h (0 Bft) N 0 0 min 0,000 mm 0 W/m 2,6 C 4,4 C 0,0 km/h (0 Bft) 100 %
31.05.2014 03:40 4,3 C 4,3 C 4,4 C 88 % 1021,2 hPa 0,0 l/m 0,0 km/h (0 Bft) N 360 0 min 0,000 mm 0 W/m 2,5 C 4,3 C 1,6 km/h (1 Bft) 89 %
31.05.2014 03:50 4,3 C 4,3 C 4,4 C 88 % 1021,2 hPa 0,0 l/m 0,0 km/h (0 Bft) N 360 0 min 0,000 mm 0 W/m 2,5 C 4,3 C 1,6 km/h (1 Bft) 100 %
31.05.2014 04:00 4,3 C 4,3 C 4,4 C 88 % 1021,1 hPa 0,0 l/m 0,0 km/h (0 Bft) N 360 0 min 0,000 mm 0 W/m 2,5 C 4,3 C 3,2 km/h (1 Bft) 100 %
31.05.2014 04:10 4,2 C 4,2 C 4,3 C 88 % 1021,2 hPa 0,0 l/m 0,0 km/h (0 Bft) N 360 0 min 0,000 mm 0 W/m 2,4 C 4,2 C 1,6 km/h (1 Bft) 100 %
31.05.2014 04:20 4,1 C 4,1 C 4,2 C 88 % 1021,1 hPa 0,0 l/m 0,0 km/h (0 Bft) N 360 0 min 0,000 mm 0 W/m 2,3 C 4,1 C 3,2 km/h (1 Bft) 100 %
31.05.2014 04:30 4,0 C 4,0 C 4,1 C 88 % 1021,1 hPa 0,0 l/m 1,6 km/h (1 Bft) N 360 0 min 0,000 mm 0 W/m 2,2 C 4,0 C 3,2 km/h (1 Bft) 100 %
31.05.2014 04:40 3,9 C 3,9 C 4,0 C 88 % 1021,0 hPa 0,0 l/m 0,0 km/h (0 Bft) N 360 0 min 0,000 mm 0 W/m 2,1 C 3,9 C 3,2 km/h (1 Bft) 100 %
31.05.2014 04:50 3,8 C 3,8 C 3,9 C 88 % 1021,0 hPa 0,0 l/m 0,0 km/h (0 Bft) N 360 0 min 0,000 mm 0 W/m 2,0 C 3,8 C 3,2 km/h (1 Bft) 100 %
31.05.2014 05:00 3,8 C 3,8 C 3,8 C 88 % 1020,9 hPa 0,0 l/m 0,0 km/h (0 Bft) N 360 0 min 0,000 mm 0 W/m 2,0 C 3,8 C 1,6 km/h (1 Bft) 100 %
31.05.2014 05:10 3,7 C 3,7 C 3,8 C 88 % 1020,9 hPa 0,0 l/m 0,0 km/h (0 Bft) N 0 0 min 0,000 mm 0 W/m 1,9 C 3,7 C 0,0 km/h (0 Bft) 100 %
31.05.2014 05:20 3,7 C 3,7 C 3,7 C 88 % 1020,9 hPa 0,0 l/m 0,0 km/h (0 Bft) N 360 0 min 0,000 mm 0 W/m 1,9 C 3,7 C 1,6 km/h (1 Bft) 100 %
31.05.2014 05:30 3,6 C 3,6 C 3,7 C 88 % 1020,8 hPa 0,0 l/m 0,0 km/h (0 Bft) N 360 0 min 0,000 mm 5 W/m 1,8 C 3,6 C 1,6 km/h (1 Bft) 92 %
31.05.2014 05:40 3,7 C 3,6 C 3,7 C 88 % 1020,8 hPa 0,0 l/m 0,0 km/h (0 Bft) N 360 0 min 0,000 mm 7 W/m 1,9 C 3,7 C 3,2 km/h (1 Bft) 100 %
31.05.2014 05:50 3,8 C 3,7 C 3,8 C 88 % 1020,8 hPa 0,0 l/m 0,0 km/h (0 Bft) N 360 0 min 0,000 mm 11 W/m 2,0 C 3,8 C 1,6 km/h (1 Bft) 100 %
31.05.2014 06:00 3,8 C 3,8 C 3,8 C 88 % 1020,7 hPa 0,0 l/m 0,0 km/h (0 Bft) N 360 0 min 0,000 mm 12 W/m 2,0 C 3,8 C 3,2 km/h (1 Bft) 100 %
31.05.2014 06:10 3,8 C 3,8 C 3,8 C 88 % 1020,8 hPa 0,0 l/m 0,0 km/h (0 Bft) N 360 0 min 0,000 mm 16 W/m 2,0 C 3,8 C 1,6 km/h (1 Bft) 100 %
31.05.2014 06:20 3,8 C 3,8 C 3,8 C 88 % 1020,8 hPa 0,0 l/m 0,0 km/h (0 Bft) N 360 0 min 0,000 mm 18 W/m 2,0 C 3,8 C 1,6 km/h (1 Bft) 100 %
31.05.2014 06:30 3,9 C 3,8 C 3,9 C 88 % 1020,8 hPa 0,0 l/m 0,0 km/h (0 Bft) N 0 0 min 0,000 mm 19 W/m 2,1 C 3,9 C 0,0 km/h (0 Bft) 100 %
31.05.2014 06:40 4,1 C 3,9 C 4,1 C 88 % 1020,9 hPa 0,0 l/m 0,0 km/h (0 Bft) N 0 0 min 0,000 mm 23 W/m 2,3 C 4,1 C 0,0 km/h (0 Bft) 100 %
31.05.2014 06:50 4,2 C 4,1 C 4,2 C 88 % 1020,9 hPa 0,0 l/m 0,0 km/h (0 Bft) N 0 0 min 0,000 mm 25 W/m 2,4 C 4,2 C 0,0 km/h (0 Bft) 100 %
31.05.2014 07:00 4,3 C 4,2 C 4,3 C 88 % 1020,9 hPa 0,0 l/m 0,0 km/h (0 Bft) N 0 0 min 0,000 mm 26 W/m 2,5 C 4,3 C 0,0 km/h (0 Bft) 100 %
31.05.2014 07:10 4,4 C 4,3 C 4,4 C 88 % 1020,9 hPa 0,0 l/m 0,0 km/h (0 Bft) N 360 0 min 0,000 mm 28 W/m 2,6 C 4,4 C 1,6 km/h (1 Bft) 100 %
31.05.2014 07:20 4,6 C 4,4 C 4,6 C 88 % 1021,0 hPa 0,0 l/m 0,0 km/h (0 Bft) N 0 0 min 0,000 mm 28 W/m 2,8 C 4,6 C 0,0 km/h (0 Bft) 100 %
31.05.2014 07:30 4,8 C 4,6 C 4,8 C 88 % 1021,1 hPa 0,0 l/m 0,0 km/h (0 Bft) N 0 0 min 0,000 mm 30 W/m 3,0 C 4,8 C 0,0 km/h (0 Bft) 100 %
31.05.2014 07:40 5,1 C 4,8 C 5,1 C 88 % 1021,1 hPa 0,0 l/m 0,0 km/h (0 Bft) N 0 0 min 0,000 mm 33 W/m 3,3 C 5,1 C 0,0 km/h (0 Bft) 100 %
31.05.2014 07:50 5,4 C 5,1 C 5,4 C 88 % 1021,2 hPa 0,0 l/m 0,0 km/h (0 Bft) N 0 0 min 0,000 mm 35 W/m 3,6 C 5,4 C 0,0 km/h (0 Bft) 98 %
31.05.2014 08:00 5,9 C 5,4 C 5,9 C 88 % 1021,3 hPa 0,0 l/m 0,0 km/h (0 Bft) N 0 0 min 0,025 mm 39 W/m 4,1 C 5,9 C 0,0 km/h (0 Bft) 100 %
31.05.2014 08:10 6,6 C 5,9 C 6,6 C 88 % 1021,3 hPa 0,0 l/m 0,0 km/h (0 Bft) N 360 10 min 0,000 mm 204 W/m 4,8 C 6,6 C 1,6 km/h (1 Bft) 100 %
31.05.2014 08:20 7,6 C 6,6 C 7,6 C 88 % 1021,4 hPa 0,0 l/m 0,0 km/h (0 Bft) N-NW 337 10 min 0,000 mm 350 W/m 5,7 C 7,6 C 3,2 km/h (1 Bft) 100 %
31.05.2014 08:30 8,8 C 7,6 C 8,8 C 89 % 1021,3 hPa 0,0 l/m 0,0 km/h (0 Bft) W-NW 292 10 min 0,000 mm 380 W/m 7,1 C 8,8 C 1,6 km/h (1 Bft) 100 %
31.05.2014 08:40 9,9 C 8,9 C 9,9 C 88 % 1021,4 hPa 0,0 l/m 0,0 km/h (0 Bft) S-SO 157 10 min 0,000 mm 408 W/m 8,0 C 9,9 C 4,8 km/h (1 Bft) 100 %
31.05.2014 08:50 11,0 C 10,0 C 11,0 C 87 % 1021,4 hPa 0,0 l/m 0,0 km/h (0 Bft) O-NO 67 10 min 0,000 mm 446 W/m 8,9 C 11,0 C 1,6 km/h (1 Bft) 100 %
31.05.2014 09:00 11,9 C 11,1 C 11,9 C 85 % 1021,4 hPa 0,0 l/m 0,0 km/h (0 Bft) S-SO 157 10 min 0,152 mm 487 W/m 9,5 C 11,9 C 4,8 km/h (1 Bft) 100 %
31.05.2014 09:10 12,7 C 11,9 C 12,7 C 80 % 1021,4 hPa 0,0 l/m 0,0 km/h (0 Bft) S-SW 202 10 min 0,000 mm 520 W/m 9,3 C 12,7 C 4,8 km/h (1 Bft) 100 %
31.05.2014 09:20 13,4 C 12,7 C 13,4 C 78 % 1021,5 hPa 0,0 l/m 0,0 km/h (0 Bft) S-SW 202 10 min 0,000 mm 547 W/m 9,6 C 13,4 C 3,2 km/h (1 Bft) 100 %
31.05.2014 09:30 14,2 C 13,4 C 14,2 C 75 % 1021,4 hPa 0,0 l/m 0,0 km/h (0 Bft) N-NW 337 10 min 0,000 mm 573 W/m 9,8 C 14,2 C 3,2 km/h (1 Bft) 100 %
31.05.2014 09:40 15,1 C 14,2 C 15,1 C 74 % 1021,4 hPa 0,0 l/m 1,6 km/h (1 Bft) O-SO 112 10 min 0,000 mm 598 W/m 10,5 C 15,1 C 8,0 km/h (2 Bft) 95 %
31.05.2014 09:50 15,3 C 15,1 C 15,3 C 69 % 1021,4 hPa 0,0 l/m 0,0 km/h (0 Bft) N 360 10 min 0,000 mm 621 W/m 9,6 C 15,3 C 4,8 km/h (1 Bft) 95 %
31.05.2014 10:00 15,7 C 15,1 C 15,7 C 68 % 1021,3 hPa 0,0 l/m 0,2 km/h (0 Bft) O-NO 61 10 min 0,001 mm 645 W/m 9,8 C 15,7 C 1,6 km/h (1 Bft) 100 %
31.05.2014 10:10 15,7 C 15,7 C 15,7 C 68 % 1021,1 hPa 0,0 l/m 0,1 km/h (0 Bft) O-NO 60 10 min 0,305 mm 675 W/m 9,8 C 15,7 C 1,6 km/h (1 Bft) 100 %
31.05.2014 10:20 16,3 C 15,7 C 16,3 C 65 % 1021,1 hPa 0,0 l/m 1,2 km/h (1 Bft) NW 307 10 min 0,000 mm 724 W/m 9,7 C 16,3 C 8,0 km/h (2 Bft) 100 %
31.05.2014 10:30 16,6 C 16,3 C 16,6 C 66 % 1021,2 hPa 0,0 l/m 0,4 km/h (0 Bft) S 180 10 min 0,000 mm 749 W/m 10,2 C 16,6 C 4,8 km/h (1 Bft) 100 %
31.05.2014 10:40 16,9 C 16,6 C 16,9 C 59 % 1021,2 hPa 0,0 l/m 0,9 km/h (0 Bft) O-SO 102 10 min 0,000 mm 747 W/m 8,8 C 16,9 C 9,7 km/h (2 Bft) 100 %
31.05.2014 10:50 17,3 C 16,9 C 17,3 C 63 % 1021,3 hPa 0,0 l/m 0,6 km/h (0 Bft) S-SO 153 10 min 0,000 mm 758 W/m 10,2 C 17,3 C 6,4 km/h (2 Bft) 99 %
31.05.2014 11:00 17,7 C 17,3 C 17,7 C 60 % 1021,4 hPa 0,0 l/m 1,0 km/h (0 Bft) NO 55 10 min 0,381 mm 789 W/m 9,8 C 17,7 C 6,4 km/h (2 Bft) 100 %
31.05.2014 11:21 17,8 C 17,7 C 17,8 C 57 % 1021,3 hPa 0,0 l/m 3,2 km/h (1 Bft) O 96 21 min 0,000 mm 838 W/m 9,2 C 17,8 C 4,8 km/h (1 Bft) 100 %
31.05.2014 11:30 17,7 C 17,7 C 17,8 C 55 % 1021,3 hPa 0,0 l/m 0,0 km/h (0 Bft) O-SO 112 9 min 0,000 mm 884 W/m 8,5 C 17,7 C 8,0 km/h (2 Bft) 100 %
31.05.2014 11:40 17,8 C 17,7 C 17,8 C 56 % 1021,2 hPa 0,0 l/m 0,0 km/h (0 Bft) W 270 10 min 0,000 mm 930 W/m 8,9 C 17,8 C 6,4 km/h (2 Bft) 100 %
31.05.2014 11:50 18,1 C 17,8 C 18,1 C 59 % 1021,2 hPa 0,0 l/m 1,6 km/h (1 Bft) N 360 10 min 0,000 mm 919 W/m 10,0 C 18,1 C 9,7 km/h (2 Bft) 100 %
31.05.2014 12:00 18,2 C 18,1 C 18,3 C 55 % 1021,1 hPa 0,0 l/m 0,0 km/h (0 Bft) NW 315 10 min 0,406 mm 997 W/m 9,0 C 18,2 C 4,8 km/h (1 Bft) 99 %
31.05.2014 12:10 18,0 C 18,0 C 18,2 C 54 % 1021,1 hPa 0,0 l/m 1,6 km/h (1 Bft) NO 45 10 min 0,000 mm 960 W/m 8,6 C 18,0 C 6,4 km/h (2 Bft) 100 %
31.05.2014 12:20 17,6 C 17,5 C 18,0 C 54 % 1021,0 hPa 0,0 l/m 1,6 km/h (1 Bft) O-SO 112 10 min 0,000 mm 940 W/m 8,2 C 17,6 C 8,0 km/h (2 Bft) 100 %
31.05.2014 12:30 18,3 C 17,5 C 18,3 C 52 % 1020,9 hPa 0,0 l/m 1,8 km/h (1 Bft) NW 304 10 min 0,000 mm 919 W/m 8,3 C 18,3 C 11,3 km/h (2 Bft) 100 %
31.05.2014 12:40 19,1 C 18,3 C 19,1 C 50 % 1020,9 hPa 0,0 l/m 1,3 km/h (1 Bft) O 90 10 min 0,000 mm 940 W/m 8,4 C 19,1 C 9,7 km/h (2 Bft) 99 %
31.05.2014 12:50 18,5 C 18,5 C 19,1 C 49 % 1020,9 hPa 0,0 l/m 2,1 km/h (1 Bft) SO 125 10 min 0,000 mm 935 W/m 7,6 C 18,5 C 8,0 km/h (2 Bft) 100 %
31.05.2014 13:00 18,9 C 18,5 C 18,9 C 51 % 1020,8 hPa 0,0 l/m 0,5 km/h (0 Bft) SO 146 10 min 0,406 mm 935 W/m 8,5 C 18,9 C 4,8 km/h (1 Bft) 100 %
31.05.2014 13:10 19,3 C 18,9 C 19,3 C 54 % 1020,8 hPa 0,0 l/m 1,2 km/h (1 Bft) S-SW 195 10 min 0,000 mm 972 W/m 9,8 C 19,3 C 14,5 km/h (3 Bft) 100 %
31.05.2014 13:20 19,3 C 19,2 C 19,3 C 48 % 1020,7 hPa 0,0 l/m 1,1 km/h (1 Bft) O-SO 109 10 min 0,000 mm 962 W/m 8,0 C 19,3 C 6,4 km/h (2 Bft) 100 %
31.05.2014 13:30 19,4 C 19,3 C 19,4 C 49 % 1020,5 hPa 0,0 l/m 0,9 km/h (0 Bft) S-SW 211 10 min 0,000 mm 1007 W/m 8,4 C 19,4 C 8,0 km/h (2 Bft) 99 %
31.05.2014 13:40 19,3 C 19,3 C 19,4 C 51 % 1020,6 hPa 0,0 l/m 1,5 km/h (1 Bft) NO 41 10 min 0,000 mm 178 W/m 8,9 C 19,3 C 14,5 km/h (3 Bft) 100 %
31.05.2014 13:50 18,9 C 18,9 C 19,3 C 50 % 1020,5 hPa 0,0 l/m 0,4 km/h (0 Bft) N-NW 330 10 min 0,000 mm 404 W/m 8,2 C 18,9 C 6,4 km/h (2 Bft) 100 %
31.05.2014 14:00 18,6 C 18,6 C 18,9 C 49 % 1020,5 hPa 0,0 l/m 0,3 km/h (0 Bft) O-SO 113 10 min 0,000 mm 213 W/m 7,7 C 18,6 C 4,8 km/h (1 Bft) 100 %
31.05.2014 14:10 19,0 C 18,5 C 19,0 C 53 % 1020,4 hPa 0,0 l/m 0,2 km/h (0 Bft) O-NO 60 10 min 0,356 mm 947 W/m 9,2 C 19,0 C 4,8 km/h (1 Bft) 100 %
31.05.2014 14:20 19,9 C 19,0 C 19,9 C 44 % 1020,4 hPa 0,0 l/m 1,1 km/h (1 Bft) O-SO 115 10 min 0,000 mm 921 W/m 7,3 C 19,9 C 9,7 km/h (2 Bft) 100 %
31.05.2014 14:30 20,3 C 19,9 C 20,3 C 45 % 1020,3 hPa 0,0 l/m 0,2 km/h (0 Bft) N-NW 330 10 min 0,000 mm 902 W/m 8,0 C 20,3 C 4,8 km/h (1 Bft) 100 %
31.05.2014 14:40 20,6 C 20,3 C 20,6 C 43 % 1020,1 hPa 0,0 l/m 0,6 km/h (0 Bft) W-SW 238 10 min 0,000 mm 874 W/m 7,6 C 20,6 C 8,0 km/h (2 Bft) 100 %
31.05.2014 14:50 21,0 C 20,6 C 21,0 C 41 % 1020,1 hPa 0,0 l/m 1,0 km/h (0 Bft) W-SW 238 10 min 0,000 mm 856 W/m 7,2 C 21,0 C 8,0 km/h (2 Bft) 100 %
31.05.2014 15:00 21,3 C 21,0 C 21,3 C 43 % 1019,9 hPa 0,0 l/m 2,9 km/h (1 Bft) N-NW 327 10 min 0,533 mm 854 W/m 8,2 C 21,3 C 11,3 km/h (2 Bft) 100 %
31.05.2014 15:10 21,0 C 21,0 C 21,4 C 43 % 1019,9 hPa 0,0 l/m 4,2 km/h (1 Bft) O 86 10 min 0,000 mm 186 W/m 7,9 C 21,0 C 16,1 km/h (3 Bft) 100 %
31.05.2014 15:20 21,2 C 20,9 C 21,2 C 46 % 1019,9 hPa 0,0 l/m 2,8 km/h (1 Bft) N-NO 15 10 min 0,000 mm 914 W/m 9,1 C 21,2 C 11,3 km/h (2 Bft) 100 %
31.05.2014 15:30 21,3 C 21,2 C 21,4 C 46 % 1019,9 hPa 0,0 l/m 0,6 km/h (0 Bft) N 355 10 min 0,000 mm 846 W/m 9,2 C 21,3 C 6,4 km/h (2 Bft) 100 %
31.05.2014 15:40 21,4 C 21,3 C 21,4 C 44 % 1019,6 hPa 0,0 l/m 1,9 km/h (1 Bft) N-NW 327 10 min 0,000 mm 849 W/m 8,6 C 21,4 C 14,5 km/h (3 Bft) 100 %
31.05.2014 15:50 21,7 C 21,4 C 21,7 C 44 % 1019,7 hPa 0,0 l/m 2,9 km/h (1 Bft) SO 132 10 min 0,000 mm 814 W/m 8,9 C 21,7 C 9,7 km/h (2 Bft) 100 %
31.05.2014 16:00 21,3 C 21,3 C 21,7 C 37 % 1019,6 hPa 0,0 l/m 1,1 km/h (1 Bft) NW 323 10 min 0,508 mm 779 W/m 6,0 C 21,3 C 6,4 km/h (2 Bft) 100 %
31.05.2014 16:10 21,4 C 21,3 C 21,4 C 42 % 1019,5 hPa 0,0 l/m 2,3 km/h (1 Bft) NW 313 10 min 0,000 mm 810 W/m 8,0 C 21,4 C 16,1 km/h (3 Bft) 100 %
31.05.2014 16:20 21,3 C 21,3 C 21,5 C 44 % 1019,5 hPa 0,0 l/m 0,7 km/h (0 Bft) SW 225 10 min 0,000 mm 162 W/m 8,5 C 21,3 C 11,3 km/h (2 Bft) 100 %
31.05.2014 16:30 20,4 C 20,4 C 21,3 C 45 % 1019,6 hPa 0,0 l/m 0,0 km/h (0 Bft) NW 304 10 min 0,000 mm 176 W/m 8,1 C 20,4 C 1,6 km/h (1 Bft) 100 %
31.05.2014 16:40 20,0 C 19,9 C 20,4 C 46 % 1019,5 hPa 0,0 l/m 0,6 km/h (0 Bft) NW 306 10 min 0,000 mm 751 W/m 8,0 C 20,0 C 6,4 km/h (2 Bft) 100 %
31.05.2014 16:50 20,5 C 20,0 C 20,5 C 46 % 1019,5 hPa 0,0 l/m 3,0 km/h (1 Bft) NW 315 10 min 0,000 mm 241 W/m 8,5 C 20,5 C 11,3 km/h (2 Bft) 100 %
31.05.2014 17:00 20,5 C 20,4 C 20,5 C 46 % 1019,5 hPa 0,0 l/m 0,5 km/h (0 Bft) NW 326 10 min 0,254 mm 360 W/m 8,5 C 20,5 C 3,2 km/h (1 Bft) 100 %
31.05.2014 17:10 20,4 C 20,4 C 20,5 C 44 % 1019,5 hPa 0,0 l/m 0,2 km/h (0 Bft) W-NW 298 10 min 0,000 mm 285 W/m 7,7 C 20,4 C 3,2 km/h (1 Bft) 100 %
31.05.2014 17:20 20,6 C 20,4 C 20,6 C 42 % 1019,4 hPa 0,0 l/m 1,2 km/h (1 Bft) N 349 10 min 0,000 mm 554 W/m 7,2 C 20,6 C 8,0 km/h (2 Bft) 100 %
31.05.2014 17:30 20,7 C 20,6 C 20,7 C 37 % 1019,3 hPa 0,0 l/m 0,7 km/h (0 Bft) W-SW 257 10 min 0,000 mm 207 W/m 5,5 C 20,7 C 6,4 km/h (2 Bft) 100 %
31.05.2014 17:40 20,8 C 20,7 C 20,8 C 40 % 1019,4 hPa 0,0 l/m 1,2 km/h (1 Bft) NW 315 10 min 0,000 mm 332 W/m 6,7 C 20,8 C 8,0 km/h (2 Bft) 91 %
31.05.2014 17:50 20,6 C 20,6 C 20,8 C 39 % 1019,2 hPa 0,0 l/m 0,5 km/h (0 Bft) NW 320 10 min 0,000 mm 482 W/m 6,2 C 20,6 C 4,8 km/h (1 Bft) 100 %
31.05.2014 18:00 20,4 C 20,4 C 20,6 C 40 % 1019,2 hPa 0,0 l/m 3,5 km/h (1 Bft) NW 313 0 min 0,229 mm 79 W/m 6,3 C 20,4 C 12,9 km/h (3 Bft) 99 %
31.05.2014 18:10 20,2 C 20,2 C 20,4 C 41 % 1019,1 hPa 0,0 l/m 4,3 km/h (1 Bft) NW 311 10 min 0,000 mm 272 W/m 6,5 C 20,2 C 11,3 km/h (2 Bft) 100 %
31.05.2014 18:20 20,3 C 20,2 C 20,3 C 41 % 1018,9 hPa 0,0 l/m 6,7 km/h (2 Bft) NW 321 10 min 0,000 mm 183 W/m 6,6 C 20,2 C 16,1 km/h (3 Bft) 100 %
31.05.2014 18:30 20,5 C 20,3 C 20,5 C 43 % 1019,0 hPa 0,0 l/m 5,7 km/h (1 Bft) NW 317 10 min 0,000 mm 241 W/m 7,5 C 20,5 C 11,3 km/h (2 Bft) 100 %
31.05.2014 18:40 20,4 C 20,4 C 20,5 C 40 % 1019,1 hPa 0,0 l/m 5,6 km/h (1 Bft) NW 321 10 min 0,000 mm 274 W/m 6,3 C 20,4 C 16,1 km/h (3 Bft) 100 %
31.05.2014 18:50 20,2 C 20,2 C 20,4 C 43 % 1019,2 hPa 0,0 l/m 4,2 km/h (1 Bft) NW 323 10 min 0,000 mm 315 W/m 7,2 C 20,2 C 11,3 km/h (2 Bft) 100 %
31.05.2014 19:00 20,0 C 20,0 C 20,2 C 45 % 1019,2 hPa 0,0 l/m 5,7 km/h (1 Bft) NW 311 10 min 0,203 mm 271 W/m 7,7 C 20,0 C 12,9 km/h (3 Bft) 100 %
31.05.2014 19:10 19,7 C 19,7 C 20,0 C 50 % 1019,1 hPa 0,0 l/m 4,4 km/h (1 Bft) NW 320 10 min 0,000 mm 181 W/m 9,0 C 19,7 C 9,7 km/h (2 Bft) 100 %
31.05.2014 19:20 19,1 C 19,1 C 19,7 C 51 % 1019,2 hPa 0,0 l/m 2,2 km/h (1 Bft) NW 321 0 min 0,000 mm 53 W/m 8,7 C 19,1 C 9,7 km/h (2 Bft) 100 %
31.05.2014 19:30 18,4 C 18,4 C 19,1 C 51 % 1019,1 hPa 0,0 l/m 0,3 km/h (0 Bft) N-NW 337 0 min 0,000 mm 100 W/m 8,1 C 18,4 C 4,8 km/h (1 Bft) 100 %
31.05.2014 19:40 18,1 C 18,1 C 18,4 C 54 % 1019,1 hPa 0,0 l/m 0,3 km/h (0 Bft) NW 326 0 min 0,000 mm 54 W/m 8,6 C 18,1 C 4,8 km/h (1 Bft) 100 %
31.05.2014 19:50 17,8 C 17,8 C 18,1 C 55 % 1019,2 hPa 0,0 l/m 0,3 km/h (0 Bft) N-NW 332 0 min 0,000 mm 65 W/m 8,6 C 17,8 C 4,8 km/h (1 Bft) 100 %
31.05.2014 20:00 17,7 C 17,7 C 17,8 C 58 % 1019,2 hPa 0,0 l/m 0,0 km/h (0 Bft) N-NW 331 0 min 0,076 mm 53 W/m 9,3 C 17,7 C 1,6 km/h (1 Bft) 100 %
31.05.2014 20:10 17,5 C 17,5 C 17,8 C 57 % 1019,2 hPa 0,0 l/m 0,0 km/h (0 Bft) N-NW 331 0 min 0,000 mm 42 W/m 8,9 C 17,5 C 1,6 km/h (1 Bft) 100 %
31.05.2014 20:20 17,2 C 17,2 C 17,5 C 60 % 1019,2 hPa 0,0 l/m 0,0 km/h (0 Bft) N-NW 331 0 min 0,000 mm 32 W/m 9,4 C 17,2 C 1,6 km/h (1 Bft) 100 %
31.05.2014 20:30 16,7 C 16,7 C 17,2 C 62 % 1019,1 hPa 0,0 l/m 0,0 km/h (0 Bft) N-NW 331 0 min 0,000 mm 16 W/m 9,4 C 16,7 C 0,0 km/h (0 Bft) 100 %
31.05.2014 20:40 16,2 C 16,2 C 16,7 C 63 % 1019,1 hPa 0,0 l/m 0,0 km/h (0 Bft) N-NW 331 0 min 0,000 mm 12 W/m 9,1 C 16,2 C 0,0 km/h (0 Bft) 100 %
31.05.2014 20:50 15,8 C 15,8 C 16,2 C 64 % 1019,1 hPa 0,0 l/m 0,0 km/h (0 Bft) N-NW 331 0 min 0,000 mm 9 W/m 9,0 C 15,8 C 0,0 km/h (0 Bft) 100 %
31.05.2014 21:00 15,3 C 15,3 C 15,8 C 64 % 1019,2 hPa 0,0 l/m 0,0 km/h (0 Bft) N-NW 331 0 min 0,026 mm 7 W/m 8,5 C 15,3 C 0,0 km/h (0 Bft) 100 %
31.05.2014 21:10 14,9 C 14,9 C 15,3 C 63 % 1019,4 hPa 0,0 l/m 0,0 km/h (0 Bft) N-NW 337 0 min 0,000 mm 7 W/m 7,9 C 14,9 C 1,6 km/h (1 Bft) 100 %
31.05.2014 21:20 14,6 C 14,6 C 14,9 C 65 % 1019,3 hPa 0,0 l/m 0,0 km/h (0 Bft) N 0 0 min 0,000 mm 0 W/m 8,1 C 14,6 C 0,0 km/h (0 Bft) 99 %
31.05.2014 21:30 14,2 C 14,2 C 14,6 C 66 % 1019,4 hPa 0,0 l/m 0,0 km/h (0 Bft) N 0 0 min 0,000 mm 0 W/m 7,9 C 14,2 C 0,0 km/h (0 Bft) 100 %
31.05.2014 21:40 13,8 C 13,8 C 14,2 C 68 % 1019,3 hPa 0,0 l/m 0,0 km/h (0 Bft) N 0 0 min 0,000 mm 0 W/m 8,0 C 13,8 C 0,0 km/h (0 Bft) 100 %
31.05.2014 21:50 13,4 C 13,4 C 13,8 C 68 % 1019,3 hPa 0,0 l/m 0,0 km/h (0 Bft) N 0 0 min 0,000 mm 0 W/m 7,6 C 13,4 C 0,0 km/h (0 Bft) 100 %
31.05.2014 22:00 13,1 C 13,1 C 13,4 C 70 % 1019,4 hPa 0,0 l/m 0,0 km/h (0 Bft) N 0 0 min 0,000 mm 0 W/m 7,8 C 13,1 C 0,0 km/h (0 Bft) 100 %
31.05.2014 22:10 12,8 C 12,8 C 13,1 C 70 % 1019,6 hPa 0,0 l/m 0,0 km/h (0 Bft) N 0 0 min 0,000 mm 0 W/m 7,5 C 12,8 C 0,0 km/h (0 Bft) 100 %
31.05.2014 22:20 12,7 C 12,7 C 12,8 C 72 % 1019,7 hPa 0,0 l/m 0,0 km/h (0 Bft) N 0 0 min 0,000 mm 0 W/m 7,8 C 12,7 C 0,0 km/h (0 Bft) 100 %
31.05.2014 22:30 12,5 C 12,5 C 12,7 C 72 % 1019,6 hPa 0,0 l/m 0,0 km/h (0 Bft) N 0 0 min 0,000 mm 0 W/m 7,6 C 12,5 C 0,0 km/h (0 Bft) 100 %
31.05.2014 22:40 12,3 C 12,3 C 12,5 C 73 % 1019,6 hPa 0,0 l/m 0,0 km/h (0 Bft) N 0 0 min 0,000 mm 0 W/m 7,6 C 12,3 C 0,0 km/h (0 Bft) 91 %
31.05.2014 22:50 12,1 C 12,1 C 12,3 C 74 % 1019,6 hPa 0,0 l/m 0,0 km/h (0 Bft) N 0 0 min 0,000 mm 0 W/m 7,6 C 12,1 C 0,0 km/h (0 Bft) 99 %
31.05.2014 23:00 11,9 C 11,9 C 12,1 C 75 % 1019,6 hPa 0,0 l/m 0,0 km/h (0 Bft) N 0 0 min 0,025 mm 0 W/m 7,6 C 11,9 C 0,0 km/h (0 Bft) 100 %
31.05.2014 23:10 11,7 C 11,7 C 11,9 C 76 % 1019,6 hPa 0,0 l/m 0,0 km/h (0 Bft) N 0 0 min 0,000 mm 0 W/m 7,6 C 11,7 C 0,0 km/h (0 Bft) 100 %
31.05.2014 23:20 11,6 C 11,6 C 11,7 C 76 % 1019,7 hPa 0,0 l/m 0,0 km/h (0 Bft) N 0 0 min 0,000 mm 0 W/m 7,5 C 11,6 C 0,0 km/h (0 Bft) 100 %
31.05.2014 23:30 11,4 C 11,4 C 11,6 C 77 % 1019,7 hPa 0,0 l/m 0,0 km/h (0 Bft) N 0 0 min 0,000 mm 0 W/m 7,5 C 11,4 C 0,0 km/h (0 Bft) 100 %
31.05.2014 23:40 11,2 C 11,2 C 11,4 C 77 % 1019,7 hPa 0,0 l/m 0,0 km/h (0 Bft) N 0 0 min 0,000 mm 0 W/m 7,3 C 11,2 C 0,0 km/h (0 Bft) 100 %
31.05.2014 23:50 10,9 C 10,9 C 11,2 C 78 % 1019,6 hPa 0,0 l/m 0,0 km/h (0 Bft) N 0 0 min 0,000 mm 0 W/m 7,2 C 10,9 C 0,0 km/h (0 Bft) 100 %
_ Min-Zeit 05:30 05:30 05:20 16:00 18:20 - 00:00 - - - - - 05:30 05:30 03:00 03:40
Minimum _ 3,6 C 3,6 C 3,7 C 37 % 1018,9 hPa - 0,0 km/h (0 Bft) - - - - - 1,8 C 3,6 C 0,0 km/h (0 Bft) 89 %
_ Max-Zeit 15:50 15:50 15:50 08:30 00:00 00:00 18:20 - - 11:21 15:00 13:30 09:40 15:50 15:10 00:00
Maximum _ 21,7 C 21,4 C 21,7 C 89 % 1021,9 hPa 0,0 l/m 6,7 km/h
NW (2 Bft)
- - 21 min 0,533 mm 1007 W/m 10,5 C 21,7 C 16,1 km/h
O-SO (3 Bft)
100 %
Durchschnitt _ 12,8 C 12,6 C 12,9 C 68 % 1020,5 hPa #0,0 l/m 0,8 km/h (0 Bft) NW - #11:00 h #3,886 mm 435 W/m 6,4 C 12,8 C 4,4 km/h (1 Bft) 99 %
PRIVATE WETTERSTATION BILLIGHEIM-ALLFELD - www.neckar-odenwald-wetter.de - Holger Sonntag